Time;durP1;ratioP1;P1;durP2;ratioP2;P2;SDS_P1;SDS_P2;PMS_P1;PMS_P2;Temp;Humidity;BMP_temperature;BMP_pressure;BME280_temperature;BME280_humidity;BME280_pressure;Samples;Min_cycle;Max_cycle;Signal;HPM_P1;HPM_P2
2022/08/08 00:02:29;;;;;;;6.55;2.33;;;16.60;99.90;;;;;;12343514;28;20085;-34
2022/08/08 00:09:05;;;;;;;3.80;2.40;;;16.50;99.90;;;;;;12412358;28;20054;-34
2022/08/08 00:15:15;;;;;;;3.90;2.45;;;16.40;99.90;;;;;;12421706;28;20046;-34
2022/08/08 00:22:27;;;;;;;5.75;2.67;;;16.30;99.90;;;;;;12430448;28;20050;-34
2022/08/08 00:28:45;;;;;;;4.63;2.67;;;16.20;99.90;;;;;;12408315;28;20096;-38
2022/08/08 00:35:14;;;;;;;5.53;2.40;;;16.20;99.90;;;;;;12423809;28;20084;-38
2022/08/08 00:41:57;;;;;;;4.03;2.50;;;16.20;99.90;;;;;;12425632;28;20080;-34
2022/08/08 00:48:55;;;;;;;4.05;2.35;;;16.10;99.90;;;;;;12421755;28;20046;-34
2022/08/08 00:55:22;;;;;;;3.90;2.33;;;16.00;99.90;;;;;;12425587;28;20125;-34
2022/08/08 01:02:06;;;;;;;5.20;3.00;;;16.00;99.90;;;;;;12420955;28;20054;-38
2022/08/08 01:08:51;;;;;;;3.67;2.20;;;15.90;99.90;;;;;;12436733;28;20463;-34
2022/08/08 01:15:12;;;;;;;4.35;2.60;;;15.80;99.90;;;;;;12435862;28;20092;-38
2022/08/08 01:21:57;;;;;;;5.05;2.70;;;15.80;99.90;;;;;;12426642;28;20050;-34
2022/08/08 01:28:42;;;;;;;5.35;3.10;;;15.80;99.90;;;;;;12436023;28;20104;-34
2022/08/08 01:35:14;;;;;;;5.10;2.63;;;15.60;99.90;;;;;;12434284;28;20077;-38
2022/08/08 01:41:35;;;;;;;4.25;2.63;;;15.60;99.90;;;;;;12430136;28;20077;-39
2022/08/08 01:47:57;;;;;;;4.57;2.83;;;15.60;99.90;;;;;;12431512;28;20054;-38
2022/08/08 01:54:27;;;;;;;4.65;2.90;;;15.50;99.90;;;;;;12431189;28;20053;-37
2022/08/08 02:01:13;;;;;;;3.90;2.70;;;15.40;99.90;;;;;;12423011;28;20513;-39
2022/08/08 02:07:54;;;;;;;7.93;3.75;;;15.30;99.90;;;;;;12435786;28;20054;-34
2022/08/08 02:14:04;;;;;;;6.00;3.25;;;15.20;99.90;;;;;;12427741;28;20042;-38
2022/08/08 02:20:28;;;;;;;5.90;2.92;;;15.20;99.90;;;;;;12421330;28;20190;-34
2022/08/08 02:27:11;;;;;;;5.43;3.03;;;15.20;99.90;;;;;;12392530;28;20572;-34
2022/08/08 02:33:20;;;;;;;6.93;3.10;;;15.10;99.90;;;;;;12433714;28;20053;-38
2022/08/08 02:39:48;;;;;;;5.05;3.20;;;15.10;99.90;;;;;;12418706;28;20050;-34
2022/08/08 02:46:29;;;;;;;4.47;2.90;;;15.00;99.90;;;;;;12426039;28;20057;-40
2022/08/08 02:52:58;;;;;;;7.50;3.28;;;14.90;99.90;;;;;;12435968;28;20398;-39
2022/08/08 02:59:36;;;;;;;9.20;3.40;;;15.00;99.90;;;;;;12429780;28;20050;-38
2022/08/08 03:06:30;;;;;;;5.35;3.20;;;14.80;99.90;;;;;;12429851;28;20100;-38
2022/08/08 03:13:14;;;;;;;6.20;3.30;;;14.70;99.90;;;;;;12431918;28;20125;-38
2022/08/08 03:20:02;;;;;;;5.78;3.80;;;14.60;99.90;;;;;;12428800;28;20053;-38
2022/08/08 03:26:05;;;;;;;5.50;3.30;;;14.60;99.90;;;;;;12410995;28;20055;-34
2022/08/08 03:38:31;;;;;;;7.40;3.20;;;14.50;99.90;;;;;;12425468;28;20046;-34
2022/08/08 03:44:53;;;;;;;6.85;3.58;;;14.50;99.90;;;;;;12419333;28;20414;-34
2022/08/08 03:50:56;;;;;;;6.90;3.72;;;14.40;99.90;;;;;;12515089;22;20392;-83
2022/08/08 03:56:58;;;;;;;5.28;3.75;;;14.30;99.90;;;;;;12434539;28;20049;-84
2022/08/08 04:03:21;;;;;;;5.65;3.72;;;14.20;99.90;;;;;;12425499;28;20424;-83
2022/08/08 04:09:55;;;;;;;10.38;4.05;;;14.20;99.90;;;;;;12420029;28;20081;-83
2022/08/08 04:16:06;;;;;;;6.00;4.10;;;14.20;99.90;;;;;;12419508;28;20197;-83
2022/08/08 04:22:09;;;;;;;9.70;4.80;;;14.10;99.90;;;;;;12415931;28;20099;-84
2022/08/08 04:28:14;;;;;;;7.93;5.07;;;14.00;99.90;;;;;;12416068;28;20402;-84
2022/08/08 04:34:36;;;;;;;5.72;4.20;;;14.00;99.90;;;;;;12418433;28;20664;-84
2022/08/08 04:40:56;;;;;;;5.60;4.15;;;13.90;99.90;;;;;;12420861;28;20049;-84
2022/08/08 04:46:58;;;;;;;9.82;5.25;;;14.00;99.90;;;;;;12440734;28;20054;-84
2022/08/08 04:53:00;;;;;;;8.98;4.93;;;14.10;99.90;;;;;;12432144;28;20132;-83
2022/08/08 04:59:14;;;;;;;6.43;5.00;;;14.20;99.90;;;;;;12425100;28;20065;-83
2022/08/08 05:05:17;;;;;;;7.30;5.15;;;14.20;99.90;;;;;;12425670;28;20057;-84
2022/08/08 05:11:40;;;;;;;9.35;5.35;;;14.30;99.90;;;;;;12426663;28;20045;-83
2022/08/08 05:17:41;;;;;;;7.72;4.78;;;14.40;99.90;;;;;;12429011;28;20398;-83
2022/08/08 05:23:56;;;;;;;10.73;5.83;;;14.50;99.90;;;;;;12422269;28;20497;-83
2022/08/08 05:30:05;;;;;;;8.73;4.75;;;14.50;99.90;;;;;;12421774;28;20402;-83
2022/08/08 05:36:14;;;;;;;7.85;5.20;;;14.60;99.90;;;;;;12435851;28;20054;-83
2022/08/08 05:42:39;;;;;;;12.05;6.30;;;14.70;99.90;;;;;;12444602;28;20053;-83
2022/08/08 05:48:42;;;;;;;9.10;6.45;;;14.70;99.90;;;;;;12440024;28;20582;-83
2022/08/08 05:54:52;;;;;;;9.25;5.75;;;14.80;99.90;;;;;;12419596;28;20080;-83
2022/08/08 06:01:05;;;;;;;10.38;6.38;;;14.80;99.90;;;;;;12418464;28;20054;-84
2022/08/08 06:07:09;;;;;;;11.98;6.10;;;14.80;99.90;;;;;;12422776;28;20152;-83
2022/08/08 06:13:12;;;;;;;8.32;5.78;;;14.90;99.90;;;;;;12417125;28;20066;-84
2022/08/08 06:19:15;;;;;;;8.07;5.50;;;15.10;99.90;;;;;;12421288;28;20142;-84
2022/08/08 06:25:17;;;;;;;9.60;5.80;;;15.00;99.90;;;;;;12267354;23;20109;-39
2022/08/08 06:31:41;;;;;;;9.00;5.78;;;15.20;99.90;;;;;;12273014;28;20058;-34
2022/08/08 06:38:05;;;;;;;10.38;5.47;;;15.30;99.90;;;;;;12298599;28;20039;-38
2022/08/08 06:44:16;;;;;;;6.63;4.85;;;15.40;99.90;;;;;;12301783;28;20174;-38
2022/08/08 06:50:27;;;;;;;8.50;5.30;;;15.40;99.90;;;;;;12296943;28;20159;-34
2022/08/08 06:56:35;;;;;;;7.75;4.80;;;15.50;99.90;;;;;;12287418;28;20447;-38
2022/08/08 07:02:41;;;;;;;8.13;5.15;;;15.70;99.90;;;;;;12285521;28;20054;-38
2022/08/08 07:08:50;;;;;;;7.30;5.00;;;15.80;99.90;;;;;;12290282;28;20110;-39
2022/08/08 07:15:02;;;;;;;9.15;5.40;;;15.90;99.90;;;;;;12282762;28;20495;-38
2022/08/08 07:21:07;;;;;;;8.50;5.38;;;16.00;99.90;;;;;;12284454;28;20476;-34
2022/08/08 07:27:25;;;;;;;6.85;5.00;;;16.10;99.90;;;;;;12288379;28;20089;-38
2022/08/08 07:33:37;;;;;;;8.57;4.93;;;16.30;99.90;;;;;;12299427;28;20051;-34
2022/08/08 07:40:00;;;;;;;5.97;4.43;;;16.40;99.90;;;;;;12373225;23;20081;-85
2022/08/08 07:46:03;;;;;;;11.27;4.90;;;16.60;99.90;;;;;;12318225;28;20398;-84
2022/08/08 07:52:26;;;;;;;8.05;4.38;;;16.70;99.90;;;;;;12324280;28;20104;-83
2022/08/08 07:58:39;;;;;;;7.70;3.83;;;16.80;99.90;;;;;;12331313;28;20054;-84
2022/08/08 08:04:44;;;;;;;7.20;3.90;;;17.10;99.90;;;;;;12321470;28;20050;-84
2022/08/08 08:10:53;;;;;;;5.70;3.30;;;17.40;99.90;;;;;;12323586;28;20073;-84
2022/08/08 08:16:58;;;;;;;6.53;3.50;;;17.60;99.90;;;;;;12320448;28;20074;-83
2022/08/08 08:23:00;;;;;;;6.35;3.78;;;17.70;99.90;;;;;;12333578;28;20047;-86
2022/08/08 08:29:03;;;;;;;6.13;3.38;;;17.90;99.90;;;;;;12346410;28;20051;-84
2022/08/08 08:35:07;;;;;;;5.47;3.45;;;18.00;99.90;;;;;;12332611;28;20062;-84
2022/08/08 08:41:13;;;;;;;4.87;3.20;;;18.30;99.90;;;;;;12328530;28;20050;-84
2022/08/08 08:47:20;;;;;;;4.60;3.45;;;18.40;99.90;;;;;;12333649;28;20306;-84
2022/08/08 08:53:23;;;;;;;;;;;18.60;99.90;;;;;;12322770;28;20130;-84
2022/08/08 08:59:48;;;;;;;7.30;3.67;;;18.70;99.90;;;;;;12321933;28;19922;-85
2022/08/08 09:06:02;;;;;;;6.78;3.83;;;18.80;99.90;;;;;;12330228;28;20228;-85
2022/08/08 09:12:25;;;;;;;5.07;3.03;;;19.10;99.90;;;;;;12340351;28;20513;-85
2022/08/08 09:18:31;;;;;;;7.57;3.55;;;19.30;99.90;;;;;;12324936;28;20055;-84
2022/08/08 09:24:37;;;;;;;5.15;3.28;;;19.50;99.90;;;;;;12365808;28;20134;-84
2022/08/08 09:30:43;;;;;;;5.43;3.90;;;19.60;99.90;;;;;;12320542;28;20047;-85
2022/08/08 09:36:47;;;;;;;6.55;4.03;;;19.70;99.90;;;;;;12327714;28;20391;-84
2022/08/08 09:43:21;;;;;;;6.40;3.72;;;19.80;99.90;;;;;;12316804;28;20047;-85
2022/08/08 09:49:45;;;;;;;6.23;3.80;;;20.00;99.90;;;;;;12340700;28;20059;-84
2022/08/08 09:55:52;;;;;;;8.15;3.53;;;20.30;99.90;;;;;;12324585;28;20046;-84
2022/08/08 10:02:18;;;;;;;5.35;3.20;;;20.40;99.90;;;;;;12329928;28;20521;-84
2022/08/08 10:08:20;;;;;;;4.63;3.10;;;20.60;99.90;;;;;;12323875;28;20493;-85
2022/08/08 10:14:33;;;;;;;5.35;3.05;;;20.80;99.90;;;;;;12326596;28;20042;-84
2022/08/08 10:20:44;;;;;;;4.57;2.92;;;21.10;99.90;;;;;;12321360;28;20513;-85
2022/08/08 10:27:02;;;;;;;5.53;2.90;;;21.40;99.90;;;;;;12330983;28;20051;-85
2022/08/08 10:33:08;;;;;;;6.90;2.72;;;21.50;99.90;;;;;;12324123;28;20050;-84
2022/08/08 10:39:21;;;;;;;6.30;2.72;;;21.60;99.90;;;;;;12322979;28;20059;-84
2022/08/08 10:45:46;;;;;;;3.70;2.70;;;21.80;99.90;;;;;;12316665;28;20046;-85
2022/08/08 10:51:59;;;;;;;5.32;2.88;;;22.00;99.90;;;;;;12324638;28;20054;-85
2022/08/08 10:58:06;;;;;;;4.57;2.67;;;22.10;99.90;;;;;;12328871;28;20387;-85
2022/08/08 11:04:08;;;;;;;4.28;2.70;;;22.30;99.90;;;;;;12311013;28;20047;-85
2022/08/08 11:10:15;;;;;;;3.05;2.13;;;22.40;99.90;;;;;;12334641;28;20059;-84
2022/08/08 11:16:32;;;;;;;3.38;2.35;;;22.80;99.90;;;;;;12329550;28;20387;-85
2022/08/08 11:22:37;;;;;;;4.15;2.30;;;22.90;99.90;;;;;;12311072;28;20042;-84
2022/08/08 11:28:40;;;;;;;4.45;2.90;;;23.00;99.90;;;;;;12320049;28;20062;-84
2022/08/08 11:34:45;;;;;;;2.85;2.17;;;23.00;99.90;;;;;;12326815;28;20059;-85
2022/08/08 11:41:07;;;;;;;4.10;2.40;;;23.40;99.90;;;;;;12334516;28;20062;-84
2022/08/08 11:47:09;;;;;;;3.95;2.30;;;23.70;99.90;;;;;;12314032;28;20055;-85
2022/08/08 11:53:19;;;;;;;3.53;2.10;;;23.60;99.90;;;;;;12332166;28;20078;-85
2022/08/08 11:59:32;;;;;;;4.47;2.20;;;23.70;99.90;;;;;;12313995;28;20486;-85
2022/08/08 12:05:54;;;;;;;3.22;2.08;;;23.90;99.90;;;;;;12322880;28;20054;-85
2022/08/08 12:11:55;;;;;;;4.90;1.88;;;24.20;99.90;;;;;;12319685;28;20109;-85
2022/08/08 12:17:57;;;;;;;3.63;1.88;;;24.50;99.90;;;;;;12326592;28;20067;-85
2022/08/08 12:24:12;;;;;;;3.65;2.10;;;24.60;99.90;;;;;;12322604;28;20406;-86
2022/08/08 12:30:14;;;;;;;2.55;1.83;;;24.60;99.90;;;;;;12321064;28;20174;-84
2022/08/08 12:36:25;;;;;;;3.85;1.80;;;24.90;99.90;;;;;;12320669;28;20055;-85
2022/08/08 12:42:29;;;;;;;4.50;2.28;;;25.00;99.90;;;;;;12317542;28;20090;-85
2022/08/08 12:48:34;;;;;;;3.65;1.90;;;25.10;99.90;;;;;;12312335;28;20118;-85
2022/08/08 12:54:39;;;;;;;4.47;2.33;;;24.60;99.90;;;;;;12320419;28;20057;-85
2022/08/08 13:00:49;;;;;;;3.38;1.85;;;24.70;99.90;;;;;;12321606;28;20047;-84
2022/08/08 13:07:04;;;;;;;5.70;2.10;;;25.00;99.90;;;;;;12348283;28;20066;-84
2022/08/08 13:13:06;;;;;;;2.60;1.80;;;24.70;99.90;;;;;;12336517;28;20516;-84
2022/08/08 13:19:09;;;;;;;4.07;2.13;;;24.70;99.90;;;;;;12340720;28;20494;-85
2022/08/08 13:25:22;;;;;;;2.72;1.98;;;25.20;99.90;;;;;;12341515;28;20306;-85
2022/08/08 13:31:25;;;;;;;3.22;1.80;;;25.30;99.90;;;;;;12345445;28;20074;-85
2022/08/08 13:37:28;;;;;;;3.50;2.00;;;25.30;99.90;;;;;;12341172;28;20094;-85
2022/08/08 13:43:50;;;;;;;5.35;2.03;;;25.00;99.90;;;;;;12323610;28;20078;-84
2022/08/08 13:49:56;;;;;;;4.78;2.28;;;24.70;99.90;;;;;;12318227;28;20162;-85
2022/08/08 13:56:29;;;;;;;5.88;1.60;;;25.00;99.90;;;;;;12315480;28;20128;-85
2022/08/08 14:02:31;;;;;;;;;;;25.10;99.90;;;;;;12325960;28;20043;-84
2022/08/08 14:08:45;;;;;;;2.97;1.80;;;25.20;99.90;;;;;;12322719;28;19922;-84
2022/08/08 14:14:48;;;;;;;5.90;2.00;;;25.30;99.90;;;;;;12320313;28;20086;-85
2022/08/08 14:21:01;;;;;;;3.35;1.70;;;25.40;99.90;;;;;;12319891;28;20519;-85
2022/08/08 14:27:03;;;;;;;;;;;25.60;99.90;;;;;;12308879;28;20055;-85
2022/08/08 14:33:10;;;;;;;5.25;2.05;;;25.80;99.90;;;;;;12321520;28;20028;-84
2022/08/08 14:39:19;;;;;;;4.40;2.13;;;25.60;99.90;;;;;;12316849;28;20055;-84
2022/08/08 14:45:27;;;;;;;6.38;1.95;;;25.50;99.90;;;;;;12315470;28;20081;-85
2022/08/08 14:51:50;;;;;;;3.65;2.30;;;25.50;99.90;;;;;;12296807;28;20054;-85
2022/08/08 14:57:55;;;;;;;3.60;1.77;;;25.40;99.90;;;;;;12319146;28;20513;-85
2022/08/08 15:04:07;;;;;;;9.67;2.00;;;25.40;99.90;;;;;;12350922;28;20458;-85
2022/08/08 15:10:11;;;;;;;8.48;2.60;;;25.30;99.90;;;;;;12311776;28;20750;-85
2022/08/08 15:16:13;;;;;;;4.70;1.95;;;25.30;99.90;;;;;;12319579;28;20055;-85
2022/08/08 15:22:17;;;;;;;4.80;1.95;;;25.20;99.90;;;;;;12312485;28;20050;-84
2022/08/08 15:28:24;;;;;;;6.68;2.00;;;25.30;99.90;;;;;;12317926;28;20513;-86
2022/08/08 15:34:35;;;;;;;4.50;2.60;;;25.30;99.90;;;;;;12316041;28;20054;-85
2022/08/08 15:40:39;;;;;;;2.90;1.70;;;25.30;99.90;;;;;;12308631;28;20407;-85
2022/08/08 15:46:44;;;;;;;5.32;2.10;;;25.40;99.90;;;;;;12312154;28;20047;-85
2022/08/08 15:52:51;;;;;;;8.80;2.22;;;25.30;99.90;;;;;;12315270;28;20178;-85
2022/08/08 15:58:53;;;;;;;4.20;2.08;;;25.10;99.90;;;;;;12330944;28;20638;-85
2022/08/08 16:04:55;;;;;;;5.00;2.20;;;25.20;99.90;;;;;;12305607;28;20411;-85
2022/08/08 16:10:59;;;;;;;7.22;2.53;;;24.80;99.90;;;;;;12318965;28;20047;-85
2022/08/08 16:17:21;;;;;;;7.45;1.92;;;25.10;99.90;;;;;;12330838;28;20383;-84
2022/08/08 16:23:43;;;;;;;5.13;2.00;;;25.10;99.90;;;;;;12317982;28;20039;-85
2022/08/08 16:29:45;;;;;;;5.25;2.30;;;25.20;99.90;;;;;;12317439;28;20109;-85
2022/08/08 16:36:08;;;;;;;4.35;2.20;;;25.00;99.90;;;;;;12306789;28;20422;-85
2022/08/08 16:42:15;;;;;;;4.20;2.05;;;25.20;99.90;;;;;;12325483;28;20137;-85
2022/08/08 16:48:19;;;;;;;5.25;2.20;;;25.30;99.90;;;;;;12329882;28;20067;-84
2022/08/08 16:54:24;;;;;;;2.58;1.75;;;25.40;99.90;;;;;;12325713;28;20510;-84
2022/08/08 17:00:46;;;;;;;3.67;1.95;;;25.40;99.90;;;;;;12319687;28;20062;-85
2022/08/08 17:06:52;;;;;;;3.92;1.80;;;25.20;99.90;;;;;;12326508;28;20410;-84
2022/08/08 17:12:54;;;;;;;3.95;1.80;;;25.10;99.90;;;;;;12329469;28;20063;-85
2022/08/08 17:18:56;;;;;;;3.90;2.10;;;24.90;99.90;;;;;;12323223;28;20147;-85
2022/08/08 17:25:01;;;;;;;4.80;1.73;;;24.80;99.90;;;;;;12322746;28;20294;-85
2022/08/08 17:31:04;;;;;;;2.97;1.67;;;24.80;99.90;;;;;;12321006;28;20066;-85
2022/08/08 17:37:26;;;;;;;3.80;2.03;;;24.80;99.90;;;;;;12320446;28;20058;-85
2022/08/08 17:43:28;;;;;;;4.50;1.80;;;24.70;99.90;;;;;;12325289;28;20051;-85
2022/08/08 17:49:31;;;;;;;3.45;1.60;;;24.70;99.90;;;;;;12319170;28;20055;-83
2022/08/08 17:55:44;;;;;;;3.08;1.60;;;24.50;99.90;;;;;;12317990;28;20499;-84
2022/08/08 18:02:07;;;;;;;2.83;1.60;;;24.50;99.90;;;;;;12325490;28;20545;-83
2022/08/08 18:08:18;;;;;;;3.03;1.55;;;24.30;99.90;;;;;;12333961;28;20082;-85
2022/08/08 18:14:40;;;;;;;3.45;1.80;;;23.90;99.90;;;;;;12320404;28;20043;-84
2022/08/08 18:20:42;;;;;;;3.47;1.55;;;23.20;99.90;;;;;;12325414;28;20050;-85
2022/08/08 18:27:00;;;;;;;3.60;1.58;;;23.00;99.90;;;;;;12339944;28;20118;-84
2022/08/08 18:33:18;;;;;;;2.95;1.60;;;22.60;99.90;;;;;;12325786;28;20051;-85
2022/08/08 18:39:40;;;;;;;3.13;1.35;;;22.50;99.90;;;;;;12324176;28;20049;-85
2022/08/08 18:45:43;;;;;;;5.18;1.70;;;22.30;99.90;;;;;;12318465;28;20171;-85
2022/08/08 18:52:05;;;;;;;4.72;1.30;;;22.20;99.90;;;;;;12334632;28;20536;-84
2022/08/08 18:58:07;;;;;;;4.65;1.23;;;22.00;99.90;;;;;;12335610;28;20105;-84
2022/08/08 19:04:10;;;;;;;2.67;1.10;;;21.70;99.90;;;;;;12311733;28;20054;-85
2022/08/08 19:10:13;;;;;;;5.07;0.93;;;21.50;99.90;;;;;;12314648;28;20495;-85
2022/08/08 19:16:17;;;;;;;;;;;21.40;99.90;;;;;;12324063;28;20070;-85
2022/08/08 19:22:20;;;;;;;3.10;1.07;;;21.30;99.90;;;;;;12320594;28;19922;-85
2022/08/08 19:28:23;;;;;;;3.40;0.90;;;21.20;99.90;;;;;;12339611;28;20059;-84
2022/08/08 19:34:25;;;;;;;5.05;0.90;;;21.20;99.90;;;;;;12321263;28;20054;-84
2022/08/08 19:40:39;;;;;;;3.85;1.10;;;21.10;99.90;;;;;;12335532;28;20051;-84
2022/08/08 19:46:44;;;;;;;5.05;1.27;;;21.10;99.90;;;;;;12334964;28;20085;-85
2022/08/08 19:52:46;;;;;;;3.72;1.08;;;21.00;99.90;;;;;;12320203;28;20491;-84
2022/08/08 19:59:00;;;;;;;4.20;1.20;;;20.90;99.90;;;;;;12313485;28;20521;-85
2022/08/08 20:05:06;;;;;;;3.78;1.08;;;20.80;99.90;;;;;;12316493;28;20054;-84
2022/08/08 20:11:13;;;;;;;4.10;1.08;;;20.70;99.90;;;;;;12321474;28;20383;-85
2022/08/08 20:17:16;;;;;;;2.38;0.98;;;20.40;99.90;;;;;;12326789;28;20054;-84
2022/08/08 20:23:29;;;;;;;6.10;0.98;;;20.30;99.90;;;;;;12318972;28;20047;-85
2022/08/08 20:29:34;;;;;;;7.15;1.48;;;20.20;99.90;;;;;;12325543;28;20574;-85
2022/08/08 20:35:56;;;;;;;3.42;0.93;;;20.20;99.90;;;;;;12325666;28;20054;-84
2022/08/08 20:42:09;;;;;;;2.57;1.03;;;20.30;99.90;;;;;;12331026;28;20054;-85
2022/08/08 20:48:11;;;;;;;2.95;1.00;;;20.20;99.90;;;;;;12321412;28;20361;-84
2022/08/08 20:54:12;;;;;;;3.10;1.23;;;20.10;99.90;;;;;;12322449;28;20054;-84
2022/08/08 21:00:28;;;;;;;3.80;1.02;;;20.00;99.90;;;;;;12333810;28;20511;-84
2022/08/08 21:06:31;;;;;;;3.35;1.00;;;19.90;99.90;;;;;;12348155;28;20055;-85
2022/08/08 21:12:52;;;;;;;6.25;1.13;;;19.80;99.90;;;;;;12329561;28;20047;-84
2022/08/08 21:18:56;;;;;;;3.22;0.93;;;19.70;99.90;;;;;;12331434;28;20086;-84
2022/08/08 21:24:58;;;;;;;10.55;1.48;;;19.60;99.90;;;;;;12325994;28;20050;-84
2022/08/08 21:30:59;;;;;;;3.92;1.15;;;19.60;99.90;;;;;;12329201;28;20074;-85
2022/08/08 21:37:21;;;;;;;3.13;1.08;;;19.50;99.90;;;;;;12320841;28;20050;-85
2022/08/08 21:43:43;;;;;;;2.03;1.00;;;19.50;99.90;;;;;;12328739;28;20614;-85
2022/08/08 21:49:47;;;;;;;1.50;0.82;;;19.40;99.90;;;;;;12316674;28;20055;-84
2022/08/08 21:55:49;;;;;;;2.53;0.95;;;19.40;99.90;;;;;;12322322;28;20157;-85
2022/08/08 22:02:11;;;;;;;3.63;1.42;;;19.30;99.90;;;;;;12312119;28;20062;-84
2022/08/08 22:08:13;;;;;;;2.80;1.10;;;19.30;99.90;;;;;;12322517;28;20094;-85
2022/08/08 22:14:15;;;;;;;2.72;1.27;;;19.20;99.90;;;;;;12326053;28;20050;-85
2022/08/08 22:20:18;;;;;;;3.38;0.70;;;19.10;99.90;;;;;;12328461;28;20490;-84
2022/08/08 22:26:28;;;;;;;5.03;1.30;;;19.00;99.90;;;;;;12318422;28;20427;-84
2022/08/08 22:32:31;;;;;;;3.55;1.10;;;18.90;99.90;;;;;;12323271;28;20051;-85
2022/08/08 22:38:34;;;;;;;3.95;0.90;;;18.80;99.90;;;;;;12322099;28;20498;-84
2022/08/08 22:44:37;;;;;;;3.65;1.00;;;18.70;99.90;;;;;;12334819;28;20044;-84
2022/08/08 22:50:39;;;;;;;2.45;0.98;;;18.60;99.90;;;;;;12317167;28;20715;-84
2022/08/08 22:56:41;;;;;;;4.15;1.10;;;18.70;99.90;;;;;;12340010;28;20097;-85
2022/08/08 23:02:48;;;;;;;1.83;0.90;;;18.60;99.90;;;;;;12322287;28;20051;-85
2022/08/08 23:08:52;;;;;;;3.80;1.10;;;18.60;99.90;;;;;;12312842;28;20065;-85
2022/08/08 23:15:00;;;;;;;3.55;1.25;;;18.50;99.90;;;;;;12332695;28;20062;-84
2022/08/08 23:21:22;;;;;;;3.95;1.08;;;18.40;99.90;;;;;;12328270;28;20051;-84
2022/08/08 23:27:23;;;;;;;3.20;0.90;;;18.40;99.90;;;;;;12343697;28;20104;-84
2022/08/08 23:33:45;;;;;;;2.47;1.13;;;18.40;99.90;;;;;;12323672;28;20050;-85
2022/08/08 23:40:08;;;;;;;2.90;1.13;;;18.30;99.90;;;;;;12318459;28;20486;-84
2022/08/08 23:46:10;;;;;;;4.60;1.13;;;18.30;99.90;;;;;;12317584;28;20043;-84
2022/08/08 23:52:32;;;;;;;3.88;1.38;;;18.10;99.90;;;;;;12318410;28;20038;-84
2022/08/08 23:58:35;;;;;;;5.32;1.48;;;18.10;99.90;;;;;;12332545;28;20137;-85
